createdAt,value
2022-10-07T00:00:19.019Z,7.26
2022-10-07T00:01:40.971Z,7.24
2022-10-07T00:02:43.783Z,7.22
2022-10-07T00:03:45.735Z,7.23
2022-10-07T00:04:47.931Z,7.22
2022-10-07T00:06:11.134Z,7.27
2022-10-07T00:07:14.844Z,7.29
2022-10-07T00:08:16.527Z,7.30
2022-10-07T00:09:18.281Z,7.29
2022-10-07T00:10:20.031Z,7.29
2022-10-07T00:11:25.490Z,7.30
2022-10-07T00:12:27.630Z,7.32
2022-10-07T00:13:29.321Z,7.34
2022-10-07T00:14:31.055Z,7.36
2022-10-07T00:15:32.767Z,7.41
2022-10-07T00:16:37.793Z,7.46
2022-10-07T00:17:39.606Z,7.50
2022-10-07T00:18:42.147Z,7.52
2022-10-07T00:19:44.140Z,7.57
2022-10-07T00:20:45.947Z,7.58
2022-10-07T00:21:47.807Z,7.59
2022-10-07T00:22:49.572Z,7.59
2022-10-07T00:23:51.410Z,7.58
2022-10-07T00:24:53.111Z,7.58
2022-10-07T00:25:54.857Z,7.56
2022-10-07T00:26:56.691Z,7.57
2022-10-07T00:27:59.086Z,7.56
2022-10-07T00:29:01.811Z,7.55
2022-10-07T00:30:03.840Z,7.53
2022-10-07T00:31:09.316Z,7.53
2022-10-07T00:32:12.978Z,7.53
2022-10-07T00:33:14.685Z,7.55
2022-10-07T00:34:16.441Z,7.58
2022-10-07T00:35:18.993Z,7.60
2022-10-07T00:36:39.172Z,7.64
2022-10-07T00:37:43.331Z,7.67
2022-10-07T00:38:51.357Z,7.71
2022-10-07T00:39:52.963Z,7.74
2022-10-07T00:40:54.860Z,7.76
2022-10-07T00:41:56.690Z,7.78
2022-10-07T00:42:59.264Z,7.80
2022-10-07T00:44:33.278Z,7.82
2022-10-07T00:45:36.506Z,7.81
2022-10-07T00:46:40.856Z,7.77
2022-10-07T00:47:48.372Z,7.71
2022-10-07T00:48:50.751Z,7.63
2022-10-07T00:50:06.115Z,7.56
2022-10-07T00:51:10.088Z,7.49
2022-10-07T00:52:14.782Z,7.47
2022-10-07T00:53:17.213Z,7.45
2022-10-07T00:54:21.003Z,7.44
2022-10-07T00:55:27.440Z,7.41
2022-10-07T00:56:31.017Z,7.40
2022-10-07T00:57:34.937Z,7.40
2022-10-07T00:58:41.502Z,7.43
2022-10-07T00:59:43.137Z,7.45
2022-10-07T01:00:45.418Z,7.49
2022-10-07T01:01:47.254Z,7.52
2022-10-07T01:02:49.365Z,7.54
2022-10-07T01:03:51.576Z,7.55
2022-10-07T01:04:58.759Z,7.56
2022-10-07T01:06:00.410Z,7.53
2022-10-07T01:07:02.432Z,7.52
2022-10-07T01:08:04.310Z,7.54
2022-10-07T01:09:10.658Z,7.53
2022-10-07T01:10:20.049Z,7.53
2022-10-07T01:11:50.895Z,7.58
2022-10-07T01:13:22.736Z,7.61
2022-10-07T01:14:55.025Z,7.56
2022-10-07T01:16:23.342Z,7.50
2022-10-07T01:17:41.280Z,7.46
2022-10-07T01:18:55.469Z,7.45
2022-10-07T01:20:31.224Z,7.43
2022-10-07T01:22:02.152Z,7.40
2022-10-07T01:23:20.901Z,7.34
2022-10-07T01:24:51.538Z,7.30
2022-10-07T01:26:31.159Z,7.31
2022-10-07T01:27:37.936Z,7.34
2022-10-07T01:28:44.711Z,7.34
2022-10-07T01:29:56.322Z,7.33
2022-10-07T01:31:05.249Z,7.30
2022-10-07T01:32:19.404Z,7.27
2022-10-07T01:33:28.987Z,7.24
2022-10-07T01:34:34.684Z,7.19
2022-10-07T01:35:37.881Z,7.21
2022-10-07T01:36:51.019Z,7.23
2022-10-07T01:38:00.541Z,7.25
2022-10-07T01:39:12.761Z,7.25
2022-10-07T01:40:25.365Z,7.24
2022-10-07T01:41:29.117Z,7.23
2022-10-07T01:42:32.421Z,7.21
2022-10-07T01:43:36.412Z,7.20
2022-10-07T01:44:40.225Z,7.19
2022-10-07T01:45:42.242Z,7.19
2022-10-07T01:46:44.083Z,7.19
2022-10-07T01:47:46.907Z,7.19
2022-10-07T01:48:49.269Z,7.17
2022-10-07T01:49:52.016Z,7.13
2022-10-07T01:50:54.590Z,7.09
2022-10-07T01:52:34.809Z,7.09
2022-10-07T01:54:06.265Z,7.07
2022-10-07T01:55:19.755Z,7.08
2022-10-07T01:56:55.162Z,7.12
2022-10-07T01:58:20.979Z,7.15
2022-10-07T01:59:47.515Z,7.19
2022-10-07T02:01:13.201Z,7.22
2022-10-07T02:02:48.250Z,7.23
2022-10-07T02:03:59.874Z,7.21
2022-10-07T02:05:16.036Z,7.20
2022-10-07T02:06:37.725Z,7.20
2022-10-07T02:08:11.677Z,7.21
2022-10-07T02:09:39.299Z,7.24
2022-10-07T02:11:11.541Z,7.27
2022-10-07T02:12:28.190Z,7.31
2022-10-07T02:13:57.842Z,7.33
2022-10-07T02:15:13.574Z,7.37
2022-10-07T02:16:32.585Z,7.38
2022-10-07T02:17:42.456Z,7.39
2022-10-07T02:18:52.384Z,7.40
2022-10-07T02:19:56.601Z,7.41
2022-10-07T02:21:05.094Z,7.40
2022-10-07T02:22:10.627Z,7.40
2022-10-07T02:23:16.908Z,7.39
2022-10-07T02:24:25.172Z,7.39
2022-10-07T02:25:33.306Z,7.39
2022-10-07T02:26:37.242Z,7.39
2022-10-07T02:27:42.926Z,7.39
2022-10-07T02:28:49.786Z,7.39
2022-10-07T02:29:57.438Z,7.38
2022-10-07T02:31:04.280Z,7.35
2022-10-07T02:32:12.210Z,7.33
2022-10-07T02:33:14.648Z,7.33
2022-10-07T02:34:21.558Z,7.33
2022-10-07T02:35:32.914Z,7.33
2022-10-07T02:36:41.010Z,7.33
2022-10-07T02:37:47.849Z,7.33
2022-10-07T02:38:50.119Z,7.35
2022-10-07T02:39:54.852Z,7.37
2022-10-07T02:41:31.420Z,7.40
2022-10-07T02:43:03.228Z,7.45
2022-10-07T02:44:19.358Z,7.47
2022-10-07T02:45:35.386Z,7.50
2022-10-07T02:46:46.711Z,7.51
2022-10-07T02:48:02.620Z,7.52
2022-10-07T02:49:12.774Z,7.53
2022-10-07T02:50:22.491Z,7.53
2022-10-07T02:51:36.252Z,7.55
2022-10-07T02:52:42.453Z,7.58
2022-10-07T02:53:49.556Z,7.60
2022-10-07T02:55:22.705Z,7.62
2022-10-07T02:56:27.502Z,7.62
2022-10-07T02:57:35.132Z,7.61
2022-10-07T02:58:45.726Z,7.58
2022-10-07T02:59:51.786Z,7.55
2022-10-07T03:00:59.670Z,7.52
2022-10-07T03:02:06.849Z,7.50
2022-10-07T03:03:08.814Z,7.47
2022-10-07T03:04:18.654Z,7.45
2022-10-07T03:05:22.503Z,7.43
2022-10-07T03:06:27.108Z,7.41
2022-10-07T03:07:29.176Z,7.38
2022-10-07T03:08:32.303Z,7.36
2022-10-07T03:09:35.215Z,7.33
2022-10-07T03:10:37.872Z,7.30
2022-10-07T03:11:40.975Z,7.27
2022-10-07T03:12:43.453Z,7.25
2022-10-07T03:13:45.922Z,7.23
2022-10-07T03:14:50.038Z,7.22
2022-10-07T03:15:52.153Z,7.20
2022-10-07T03:16:57.468Z,7.20
2022-10-07T03:17:59.267Z,7.19
2022-10-07T03:19:01.625Z,7.18
2022-10-07T03:20:10.230Z,7.17
2022-10-07T03:21:12.417Z,7.17
2022-10-07T03:22:14.090Z,7.16
2022-10-07T03:23:16.079Z,7.16
2022-10-07T03:24:18.527Z,7.18
2022-10-07T03:25:20.898Z,7.18
2022-10-07T03:26:24.181Z,7.18
2022-10-07T03:27:26.208Z,7.19
2022-10-07T03:28:30.091Z,7.19
2022-10-07T03:29:32.992Z,7.22
2022-10-07T03:30:34.851Z,7.22
2022-10-07T03:31:37.668Z,7.22
2022-10-07T03:32:41.462Z,7.23
2022-10-07T03:33:43.842Z,7.24
2022-10-07T03:34:45.570Z,7.25
2022-10-07T03:35:47.256Z,7.27
2022-10-07T03:36:48.909Z,7.28
2022-10-07T03:37:50.767Z,7.30
2022-10-07T03:38:54.970Z,7.32
2022-10-07T03:39:57.082Z,7.34
2022-10-07T03:41:01.810Z,7.36
2022-10-07T03:42:04.559Z,7.36
2022-10-07T03:43:07.621Z,7.37
2022-10-07T03:44:09.639Z,7.37
2022-10-07T03:45:11.310Z,7.37
2022-10-07T03:46:14.100Z,7.37
2022-10-07T03:47:17.561Z,7.37
2022-10-07T03:48:19.546Z,7.36
2022-10-07T03:49:21.866Z,7.37
2022-10-07T03:50:26.123Z,7.37
2022-10-07T03:51:27.814Z,7.37
2022-10-07T03:52:29.722Z,7.37
2022-10-07T03:53:32.069Z,7.37
2022-10-07T03:54:35.273Z,7.38
2022-10-07T03:55:37.644Z,7.38
2022-10-07T03:56:39.367Z,7.37
2022-10-07T03:57:50.004Z,7.35
2022-10-07T03:58:52.764Z,7.31
2022-10-07T03:59:54.976Z,7.29
2022-10-07T04:01:11.422Z,7.26
2022-10-07T04:02:16.838Z,7.25
2022-10-07T04:03:18.890Z,7.24
2022-10-07T04:04:21.801Z,7.24
2022-10-07T04:05:23.577Z,7.23
2022-10-07T04:06:26.267Z,7.23
2022-10-07T04:07:28.122Z,7.23
2022-10-07T04:08:32.922Z,7.23
2022-10-07T04:09:34.831Z,7.25
2022-10-07T04:10:36.745Z,7.25
2022-10-07T04:11:40.602Z,7.27
2022-10-07T04:12:45.243Z,7.27
2022-10-07T04:13:48.372Z,7.27
2022-10-07T04:14:51.208Z,7.26
2022-10-07T04:15:53.468Z,7.26
2022-10-07T04:16:56.731Z,7.26
2022-10-07T04:17:58.689Z,7.26
2022-10-07T04:19:00.700Z,7.25
2022-10-07T04:20:03.129Z,7.26
2022-10-07T04:21:05.492Z,7.27
2022-10-07T04:22:09.035Z,7.27
2022-10-07T04:23:11.630Z,7.28
2022-10-07T04:24:13.677Z,7.29
2022-10-07T04:25:33.863Z,7.28
2022-10-07T04:26:38.182Z,7.27
2022-10-07T04:27:51.569Z,7.26
2022-10-07T04:28:53.958Z,7.26
2022-10-07T04:29:57.029Z,7.27
2022-10-07T04:30:58.846Z,7.26
2022-10-07T04:32:06.001Z,7.25
2022-10-07T04:33:08.450Z,7.23
2022-10-07T04:34:10.216Z,7.21
2022-10-07T04:35:14.361Z,7.20
2022-10-07T04:36:16.427Z,7.19
2022-10-07T04:37:22.159Z,7.19
2022-10-07T04:38:28.138Z,7.18
2022-10-07T04:39:49.271Z,7.18
2022-10-07T04:40:52.505Z,7.18
2022-10-07T04:41:55.132Z,7.19
2022-10-07T04:43:19.505Z,7.21
2022-10-07T04:44:23.728Z,7.23
2022-10-07T04:45:43.405Z,7.25
2022-10-07T04:46:45.151Z,7.26
2022-10-07T04:47:48.660Z,7.26
2022-10-07T04:48:50.588Z,7.27
2022-10-07T04:49:56.010Z,7.28
2022-10-07T04:51:02.740Z,7.28
2022-10-07T04:52:04.424Z,7.28
2022-10-07T04:53:14.345Z,7.29
2022-10-07T04:54:16.154Z,7.29
2022-10-07T04:55:24.117Z,7.29
2022-10-07T04:56:28.354Z,7.28
2022-10-07T04:57:30.191Z,7.29
2022-10-07T04:58:32.870Z,7.30
2022-10-07T04:59:39.266Z,7.29
2022-10-07T05:00:49.594Z,7.28
2022-10-07T05:01:52.161Z,7.28
2022-10-07T05:02:53.879Z,7.28
2022-10-07T05:03:56.224Z,7.28
2022-10-07T05:04:58.003Z,7.28
2022-10-07T05:06:05.961Z,7.29
2022-10-07T05:07:08.642Z,7.29
2022-10-07T05:08:12.500Z,7.30
2022-10-07T05:09:14.365Z,7.30
2022-10-07T05:10:18.874Z,7.30
2022-10-07T05:11:20.588Z,7.30
2022-10-07T05:12:33.321Z,7.31
2022-10-07T05:13:38.716Z,7.31
2022-10-07T05:14:43.083Z,7.32
2022-10-07T05:15:53.882Z,7.32
2022-10-07T05:16:55.646Z,7.32
2022-10-07T05:17:59.982Z,7.31
2022-10-07T05:19:02.070Z,7.31
2022-10-07T05:20:04.856Z,7.32
2022-10-07T05:21:08.792Z,7.33
2022-10-07T05:22:13.453Z,7.34
2022-10-07T05:23:18.387Z,7.37
2022-10-07T05:24:20.660Z,7.39
2022-10-07T05:25:22.412Z,7.41
2022-10-07T05:26:24.084Z,7.43
2022-10-07T05:27:32.469Z,7.45
2022-10-07T05:28:35.373Z,7.46
2022-10-07T05:29:37.068Z,7.48
2022-10-07T05:30:39.205Z,7.49
2022-10-07T05:31:41.339Z,7.49
2022-10-07T05:32:43.210Z,7.48
2022-10-07T05:33:46.243Z,7.49
2022-10-07T05:34:48.093Z,7.50
2022-10-07T05:35:49.756Z,7.51
2022-10-07T05:36:51.461Z,7.51
2022-10-07T05:37:54.251Z,7.51
2022-10-07T05:38:59.899Z,7.52
2022-10-07T05:40:11.358Z,7.53
2022-10-07T05:41:13.369Z,7.55
2022-10-07T05:42:15.781Z,7.57
2022-10-07T05:43:23.251Z,7.60
2022-10-07T05:44:25.162Z,7.63
2022-10-07T05:45:27.139Z,7.66
2022-10-07T05:46:29.314Z,7.69
2022-10-07T05:47:34.925Z,7.71
2022-10-07T05:48:39.461Z,7.74
2022-10-07T05:49:41.943Z,7.76
2022-10-07T05:50:47.382Z,7.79
2022-10-07T05:51:49.401Z,7.83
2022-10-07T05:52:52.043Z,7.87
2022-10-07T05:53:57.504Z,7.91
2022-10-07T05:55:03.847Z,7.96
2022-10-07T05:56:12.213Z,8.00
2022-10-07T05:57:14.137Z,8.03
2022-10-07T05:58:15.937Z,8.06
2022-10-07T05:59:17.786Z,8.10
2022-10-07T06:00:20.939Z,8.15
2022-10-07T06:01:24.820Z,8.18
2022-10-07T06:02:26.722Z,8.20
2022-10-07T06:03:29.168Z,8.23
2022-10-07T06:04:31.723Z,8.26
2022-10-07T06:05:33.516Z,8.28
2022-10-07T06:06:36.470Z,8.30
2022-10-07T06:07:41.338Z,8.33
2022-10-07T06:08:43.149Z,8.36
2022-10-07T06:10:03.589Z,8.39
2022-10-07T06:11:25.301Z,8.44
2022-10-07T06:12:45.456Z,8.49
2022-10-07T06:13:54.157Z,8.53
2022-10-07T06:14:55.913Z,8.56
2022-10-07T06:16:05.361Z,8.57
2022-10-07T06:17:07.396Z,8.59
2022-10-07T06:18:09.296Z,8.62
2022-10-07T06:19:22.382Z,8.66
2022-10-07T06:20:25.137Z,8.73
2022-10-07T06:21:28.162Z,8.79
2022-10-07T06:22:34.089Z,8.87
2022-10-07T06:23:35.863Z,8.93
2022-10-07T06:24:37.612Z,8.98
2022-10-07T06:25:39.924Z,9.04
2022-10-07T06:26:44.844Z,9.10
2022-10-07T06:27:52.774Z,9.17
2022-10-07T06:28:55.485Z,9.24
2022-10-07T06:29:57.452Z,9.30
2022-10-07T06:30:59.588Z,9.33
2022-10-07T06:32:01.407Z,9.36
2022-10-07T06:33:03.719Z,9.39
2022-10-07T06:34:05.554Z,9.43
2022-10-07T06:35:07.907Z,9.46
2022-10-07T06:36:12.472Z,9.48
2022-10-07T06:37:14.570Z,9.48
2022-10-07T06:38:17.114Z,9.49
2022-10-07T06:39:19.080Z,9.51
2022-10-07T06:40:21.832Z,9.51
2022-10-07T06:41:23.920Z,9.52
2022-10-07T06:42:36.799Z,9.55
2022-10-07T06:44:03.301Z,9.58
2022-10-07T06:45:05.706Z,9.61
2022-10-07T06:46:12.840Z,9.64
2022-10-07T06:47:15.964Z,9.68
2022-10-07T06:48:19.500Z,9.70
2022-10-07T06:49:21.220Z,9.73
2022-10-07T06:50:22.951Z,9.74
2022-10-07T06:51:25.094Z,9.74
2022-10-07T06:52:26.900Z,9.75
2022-10-07T06:53:29.724Z,9.76
2022-10-07T06:54:32.372Z,9.77
2022-10-07T06:55:34.152Z,9.79
2022-10-07T06:56:36.062Z,9.81
2022-10-07T06:57:46.216Z,9.85
2022-10-07T06:58:50.005Z,9.87
2022-10-07T06:59:55.733Z,9.89
2022-10-07T07:00:59.835Z,9.90
2022-10-07T07:02:02.255Z,9.92
2022-10-07T07:03:04.319Z,9.95
2022-10-07T07:04:06.516Z,9.99
2022-10-07T07:05:09.085Z,10.03
2022-10-07T07:06:12.047Z,10.06
2022-10-07T07:07:14.004Z,10.11
2022-10-07T07:08:18.246Z,10.14
2022-10-07T07:09:22.663Z,10.18
2022-10-07T07:10:25.618Z,10.22
2022-10-07T07:11:37.062Z,10.25
2022-10-07T07:13:15.572Z,10.29
2022-10-07T07:14:18.705Z,10.33
2022-10-07T07:15:24.573Z,10.37
2022-10-07T07:16:26.745Z,10.43
2022-10-07T07:17:29.135Z,10.49
2022-10-07T07:18:31.342Z,10.55
2022-10-07T07:19:33.143Z,10.63
2022-10-07T07:20:39.931Z,10.69
2022-10-07T07:21:42.139Z,10.77
2022-10-07T07:22:45.976Z,10.85
2022-10-07T07:23:48.509Z,10.94
2022-10-07T07:24:50.222Z,11.03
2022-10-07T07:25:51.923Z,11.11
2022-10-07T07:26:53.610Z,11.19
2022-10-07T07:27:58.682Z,11.26
2022-10-07T07:29:03.360Z,11.33
2022-10-07T07:30:11.172Z,11.41
2022-10-07T07:31:13.638Z,11.47
2022-10-07T07:32:15.395Z,11.52
2022-10-07T07:33:17.934Z,11.57
2022-10-07T07:34:20.727Z,11.63
2022-10-07T07:35:24.303Z,11.70
2022-10-07T07:36:26.355Z,11.76
2022-10-07T07:37:30.167Z,11.81
2022-10-07T07:38:32.031Z,11.87
2022-10-07T07:39:33.682Z,11.95
2022-10-07T07:40:53.530Z,12.00
2022-10-07T07:41:55.746Z,12.03
2022-10-07T07:42:58.102Z,12.05
2022-10-07T07:44:02.669Z,12.07
2022-10-07T07:45:05.101Z,12.12
2022-10-07T07:46:07.662Z,12.18
2022-10-07T07:47:09.422Z,12.22
2022-10-07T07:48:13.874Z,12.25
2022-10-07T07:49:17.146Z,12.29
2022-10-07T07:50:22.563Z,12.34
2022-10-07T07:51:24.484Z,12.41
2022-10-07T07:52:26.318Z,12.45
2022-10-07T07:53:28.569Z,12.52
2022-10-07T07:54:30.532Z,12.58
2022-10-07T07:55:32.472Z,12.61
2022-10-07T07:56:34.119Z,12.65
2022-10-07T07:57:36.597Z,12.70
2022-10-07T07:58:40.235Z,12.75
2022-10-07T07:59:42.062Z,12.79
2022-10-07T08:00:44.029Z,12.86
2022-10-07T08:01:45.829Z,12.92
2022-10-07T08:02:48.982Z,12.98
2022-10-07T08:03:52.718Z,13.06
2022-10-07T08:04:54.353Z,13.11
2022-10-07T08:05:56.468Z,13.15
2022-10-07T08:06:58.161Z,13.16
2022-10-07T08:07:59.902Z,13.19
2022-10-07T08:09:01.869Z,13.24
2022-10-07T08:10:04.698Z,13.29
2022-10-07T08:11:20.845Z,13.32
2022-10-07T08:12:23.415Z,13.34
2022-10-07T08:13:25.800Z,13.37
2022-10-07T08:14:27.498Z,13.39
2022-10-07T08:15:29.642Z,13.41
2022-10-07T08:16:31.495Z,13.44
2022-10-07T08:17:34.650Z,13.46
2022-10-07T08:18:36.887Z,13.48
2022-10-07T08:19:38.617Z,13.51
2022-10-07T08:20:40.504Z,13.54
2022-10-07T08:21:42.947Z,13.56
2022-10-07T08:22:49.727Z,13.58
2022-10-07T08:23:53.686Z,13.61
2022-10-07T08:24:59.889Z,13.64
2022-10-07T08:26:03.422Z,13.68
2022-10-07T08:27:06.210Z,13.72
2022-10-07T08:28:09.547Z,13.74
2022-10-07T08:29:11.882Z,13.74
2022-10-07T08:30:13.794Z,13.73
2022-10-07T08:31:18.730Z,13.71
2022-10-07T08:32:20.474Z,13.68
2022-10-07T08:33:22.722Z,13.66
2022-10-07T08:34:24.439Z,13.65
2022-10-07T08:35:26.091Z,13.64
2022-10-07T08:36:30.022Z,13.66
2022-10-07T08:37:31.667Z,13.70
2022-10-07T08:38:36.910Z,13.70
2022-10-07T08:39:38.636Z,13.71
2022-10-07T08:40:53.551Z,13.73
2022-10-07T08:42:20.869Z,13.77
2022-10-07T08:43:24.838Z,13.87
2022-10-07T08:44:33.597Z,13.95
2022-10-07T08:45:35.632Z,14.05
2022-10-07T08:46:39.218Z,14.12
2022-10-07T08:47:47.452Z,14.19
2022-10-07T08:48:59.892Z,14.27
2022-10-07T08:50:20.004Z,14.35
2022-10-07T08:51:31.460Z,14.45
2022-10-07T08:52:33.011Z,14.48
2022-10-07T08:53:38.064Z,14.60
2022-10-07T08:54:39.730Z,14.65
2022-10-07T08:56:08.416Z,14.68
2022-10-07T08:57:29.278Z,14.72
2022-10-07T08:58:54.199Z,14.75
2022-10-07T09:00:03.814Z,14.79
2022-10-07T09:01:23.032Z,14.83
2022-10-07T09:02:44.251Z,14.87
2022-10-07T09:03:55.438Z,14.93
2022-10-07T09:05:16.851Z,14.97
2022-10-07T09:06:28.755Z,15.05
2022-10-07T09:07:45.666Z,15.11
2022-10-07T09:08:57.745Z,15.18
2022-10-07T09:10:26.277Z,15.27
2022-10-07T09:11:32.321Z,15.35
2022-10-07T09:12:44.905Z,15.43
2022-10-07T09:13:54.378Z,15.50
2022-10-07T09:15:02.905Z,15.56
2022-10-07T09:16:23.170Z,15.59
2022-10-07T09:17:43.874Z,15.61
2022-10-07T09:18:54.030Z,15.67
2022-10-07T09:20:05.595Z,15.76
2022-10-07T09:21:18.899Z,15.84
2022-10-07T09:22:34.244Z,15.90
2022-10-07T09:23:36.833Z,15.96
2022-10-07T09:24:38.886Z,15.95
2022-10-07T09:25:41.544Z,15.91
2022-10-07T09:26:43.704Z,15.89
2022-10-07T09:27:45.628Z,15.86
2022-10-07T09:28:47.910Z,15.82
2022-10-07T09:29:51.316Z,15.80
2022-10-07T09:30:53.203Z,15.84
2022-10-07T09:31:56.196Z,15.89
2022-10-07T09:32:58.335Z,15.91
2022-10-07T09:34:00.059Z,15.98
2022-10-07T09:35:05.958Z,16.02
2022-10-07T09:36:11.330Z,16.07
2022-10-07T09:37:12.980Z,16.12
2022-10-07T09:38:15.369Z,16.17
2022-10-07T09:39:23.917Z,16.21
2022-10-07T09:41:03.498Z,16.24
2022-10-07T09:42:14.886Z,16.33
2022-10-07T09:43:19.435Z,16.34
2022-10-07T09:44:27.526Z,16.34
2022-10-07T09:45:32.335Z,16.37
2022-10-07T09:46:51.150Z,16.42
2022-10-07T09:47:56.787Z,16.46
2022-10-07T09:49:04.396Z,16.48
2022-10-07T09:50:26.446Z,16.49
2022-10-07T09:51:29.337Z,16.54
2022-10-07T09:52:32.816Z,16.61
2022-10-07T09:53:34.511Z,16.69
2022-10-07T09:54:36.978Z,16.74
2022-10-07T09:55:41.642Z,16.73
2022-10-07T09:56:46.534Z,16.68
2022-10-07T09:58:04.697Z,16.69
2022-10-07T09:59:27.693Z,16.71
2022-10-07T10:00:30.579Z,16.76
2022-10-07T10:01:32.790Z,16.80
2022-10-07T10:02:35.144Z,16.84
2022-10-07T10:03:38.483Z,16.91
2022-10-07T10:04:54.520Z,16.96
2022-10-07T10:06:01.302Z,17.06
2022-10-07T10:07:19.108Z,17.13
2022-10-07T10:08:28.381Z,17.21
2022-10-07T10:09:30.666Z,17.29
2022-10-07T10:10:37.008Z,17.35
2022-10-07T10:11:38.915Z,17.42
2022-10-07T10:12:51.161Z,17.49
2022-10-07T10:13:52.922Z,17.55
2022-10-07T10:15:01.605Z,17.56
2022-10-07T10:16:06.178Z,17.55
2022-10-07T10:17:25.478Z,17.50
2022-10-07T10:18:41.438Z,17.43
2022-10-07T10:19:43.308Z,17.42
2022-10-07T10:20:46.561Z,17.41
2022-10-07T10:21:55.057Z,17.39
2022-10-07T10:22:58.422Z,17.39
2022-10-07T10:24:06.012Z,17.42
2022-10-07T10:25:29.572Z,17.48
2022-10-07T10:27:01.510Z,17.57
2022-10-07T10:28:13.497Z,17.68
2022-10-07T10:29:35.886Z,17.74
2022-10-07T10:31:04.649Z,17.81
2022-10-07T10:32:21.362Z,17.88
2022-10-07T10:33:47.391Z,17.91
2022-10-07T10:35:40.165Z,17.97
2022-10-07T10:36:52.050Z,18.07
2022-10-07T10:38:10.937Z,18.16
2022-10-07T10:39:34.667Z,18.24
2022-10-07T10:41:11.861Z,18.32
2022-10-07T10:42:22.742Z,18.42
2022-10-07T10:43:24.291Z,18.44
2022-10-07T10:44:55.984Z,18.48
2022-10-07T10:46:23.431Z,18.54
2022-10-07T10:48:00.860Z,18.55
2022-10-07T10:49:14.226Z,18.63
2022-10-07T10:50:57.871Z,18.74
2022-10-07T10:52:29.916Z,18.84
2022-10-07T10:53:49.743Z,18.94
2022-10-07T10:55:17.790Z,19.06
2022-10-07T10:56:41.395Z,19.23
2022-10-07T10:58:06.694Z,19.40
2022-10-07T10:59:29.867Z,19.56
2022-10-07T11:00:59.455Z,19.73
2022-10-07T11:02:44.678Z,19.93
2022-10-07T11:04:14.343Z,20.15
2022-10-07T11:05:19.586Z,20.17
2022-10-07T11:06:23.430Z,20.14
2022-10-07T11:07:34.119Z,20.09
2022-10-07T11:08:38.642Z,20.01
2022-10-07T11:09:51.053Z,19.99
2022-10-07T11:11:12.076Z,20.00
2022-10-07T11:12:41.641Z,20.10
2022-10-07T11:14:05.767Z,20.28
2022-10-07T11:15:20.764Z,20.36
2022-10-07T11:16:45.317Z,20.44
2022-10-07T11:17:51.940Z,20.46
2022-10-07T11:19:06.992Z,20.43
2022-10-07T11:20:25.280Z,20.35
2022-10-07T11:21:32.340Z,20.23
2022-10-07T11:22:47.979Z,20.15
2022-10-07T11:24:02.124Z,20.20
2022-10-07T11:25:30.314Z,20.36
2022-10-07T11:26:42.155Z,20.56
2022-10-07T11:27:49.702Z,20.75
2022-10-07T11:28:53.325Z,20.90
2022-10-07T11:30:06.505Z,21.02
2022-10-07T11:31:19.973Z,21.07
2022-10-07T11:32:35.815Z,21.11
2022-10-07T11:33:46.482Z,21.13
2022-10-07T11:35:27.126Z,21.25
2022-10-07T11:36:43.798Z,21.41
2022-10-07T11:37:54.149Z,21.51
2022-10-07T11:38:55.840Z,21.61
2022-10-07T11:39:57.648Z,21.69
2022-10-07T11:41:29.835Z,21.76
2022-10-07T11:42:40.435Z,21.79
2022-10-07T11:43:57.099Z,21.84
2022-10-07T11:45:05.372Z,21.91
2022-10-07T11:46:36.234Z,21.95
2022-10-07T11:47:49.581Z,22.06
2022-10-07T11:49:22.295Z,22.07
2022-10-07T11:50:29.877Z,22.07
2022-10-07T11:51:40.935Z,22.04
2022-10-07T11:52:47.717Z,22.05
2022-10-07T11:53:56.028Z,22.10
2022-10-07T11:55:06.354Z,22.13
2022-10-07T11:56:23.198Z,22.11
2022-10-07T11:57:31.658Z,22.10
2022-10-07T11:58:37.303Z,22.15
2022-10-07T11:59:58.066Z,22.23
2022-10-07T12:01:32.060Z,22.30
2022-10-07T12:02:44.017Z,22.37
2022-10-07T12:03:47.533Z,22.41
2022-10-07T12:04:49.281Z,22.51
2022-10-07T12:05:50.854Z,22.59
2022-10-07T12:07:29.794Z,22.68
2022-10-07T12:08:37.395Z,22.93
2022-10-07T12:10:23.227Z,23.20
2022-10-07T12:11:37.131Z,23.33
2022-10-07T12:12:45.219Z,23.37
2022-10-07T12:13:51.465Z,23.38
2022-10-07T12:15:02.469Z,23.38
2022-10-07T12:16:25.685Z,23.51
2022-10-07T12:17:29.686Z,23.72
2022-10-07T12:18:31.384Z,23.78
2022-10-07T12:19:37.307Z,23.85
2022-10-07T12:20:50.770Z,23.91
2022-10-07T12:22:04.690Z,23.97
2022-10-07T12:23:25.862Z,24.05
2022-10-07T12:24:45.947Z,24.09
2022-10-07T12:25:51.392Z,24.07
2022-10-07T12:26:56.580Z,24.02
2022-10-07T12:27:58.416Z,23.99
2022-10-07T12:29:00.426Z,23.98
2022-10-07T12:30:02.653Z,23.99
2022-10-07T12:31:07.055Z,24.03
2022-10-07T12:32:45.220Z,24.07
2022-10-07T12:33:46.963Z,24.21
2022-10-07T12:34:48.590Z,24.28
2022-10-07T12:35:54.287Z,24.43
2022-10-07T12:37:35.000Z,24.55
2022-10-07T12:38:36.908Z,24.58
2022-10-07T12:39:38.990Z,24.47
2022-10-07T12:40:44.461Z,24.39
2022-10-07T12:41:46.802Z,24.40
2022-10-07T12:43:04.385Z,24.53
2022-10-07T12:44:23.553Z,24.73
2022-10-07T12:45:29.386Z,24.85
2022-10-07T12:46:36.906Z,24.93
2022-10-07T12:47:40.163Z,24.99
2022-10-07T12:48:58.413Z,25.05
2022-10-07T12:50:11.241Z,25.11
2022-10-07T12:51:23.072Z,25.15
2022-10-07T12:52:54.369Z,25.22
2022-10-07T12:54:00.255Z,25.18
2022-10-07T12:55:14.618Z,25.03
2022-10-07T12:56:26.614Z,24.97
2022-10-07T12:57:34.984Z,25.04
2022-10-07T12:59:07.194Z,25.14
2022-10-07T13:00:25.571Z,25.17
2022-10-07T13:02:08.143Z,25.16
2022-10-07T13:03:15.741Z,25.32
2022-10-07T13:04:31.900Z,25.49
2022-10-07T13:05:48.467Z,25.69
2022-10-07T13:07:22.589Z,25.80
2022-10-07T13:08:29.731Z,25.79
2022-10-07T13:09:49.969Z,25.85
2022-10-07T13:11:43.159Z,25.91
2022-10-07T13:13:07.509Z,25.85
2022-10-07T13:14:21.876Z,25.83
2022-10-07T13:15:41.497Z,25.92
2022-10-07T13:17:20.316Z,25.91
2022-10-07T13:18:37.279Z,25.85
2022-10-07T13:19:51.899Z,25.78
2022-10-07T13:21:07.868Z,25.80
2022-10-07T13:22:20.004Z,25.92
2022-10-07T13:23:27.242Z,26.03
2022-10-07T13:24:29.854Z,26.12
2022-10-07T13:25:31.706Z,26.21
2022-10-07T13:26:33.474Z,26.27
2022-10-07T13:27:38.737Z,26.30
2022-10-07T13:28:58.387Z,26.34
2022-10-07T13:30:04.787Z,26.42
2022-10-07T13:31:17.751Z,26.46
2022-10-07T13:32:29.689Z,26.52
2022-10-07T13:33:32.422Z,26.59
2022-10-07T13:34:34.385Z,26.62
2022-10-07T13:35:39.637Z,26.56
2022-10-07T13:36:43.678Z,26.50
2022-10-07T13:37:48.402Z,26.48
2022-10-07T13:39:15.352Z,26.46
2022-10-07T13:40:33.959Z,26.55
2022-10-07T13:41:38.988Z,26.60
2022-10-07T13:42:40.733Z,26.58
2022-10-07T13:43:44.532Z,26.67
2022-10-07T13:44:46.258Z,26.76
2022-10-07T13:45:48.095Z,26.80
2022-10-07T13:47:00.224Z,26.84
2022-10-07T13:48:02.362Z,26.89
2022-10-07T13:49:05.385Z,26.91
2022-10-07T13:50:15.999Z,26.89
2022-10-07T13:51:32.803Z,26.84
2022-10-07T13:52:39.646Z,26.68
2022-10-07T13:53:41.594Z,26.52
2022-10-07T13:54:51.425Z,26.37
2022-10-07T13:56:24.087Z,26.27
2022-10-07T13:57:29.765Z,26.28
2022-10-07T13:58:33.175Z,26.36
2022-10-07T13:59:36.899Z,26.49
2022-10-07T14:00:47.159Z,26.54
2022-10-07T14:01:52.703Z,26.50
2022-10-07T14:02:54.671Z,26.45
2022-10-07T14:04:14.621Z,26.44
2022-10-07T14:05:21.400Z,26.38
2022-10-07T14:06:39.446Z,26.28
2022-10-07T14:07:41.966Z,26.09
2022-10-07T14:08:51.309Z,25.98
2022-10-07T14:10:04.905Z,25.80
2022-10-07T14:11:19.793Z,25.58
2022-10-07T14:12:35.207Z,25.52
2022-10-07T14:13:37.965Z,25.57
2022-10-07T14:14:43.215Z,25.47
2022-10-07T14:15:54.266Z,25.39
2022-10-07T14:17:01.457Z,25.40
2022-10-07T14:18:10.506Z,25.47
2022-10-07T14:19:20.983Z,25.61
2022-10-07T14:20:35.137Z,25.79
2022-10-07T14:21:41.270Z,25.82
2022-10-07T14:22:49.957Z,25.72
2022-10-07T14:23:51.742Z,25.56
2022-10-07T14:25:01.479Z,25.41
2022-10-07T14:26:06.570Z,25.17
2022-10-07T14:27:46.989Z,24.76
2022-10-07T14:28:48.684Z,24.01
2022-10-07T14:29:50.450Z,23.62
2022-10-07T14:31:26.175Z,23.23
2022-10-07T14:32:46.587Z,22.70
2022-10-07T14:35:09.546Z,22.36
2022-10-07T14:36:16.428Z,21.83
2022-10-07T14:37:17.922Z,21.63
2022-10-07T14:38:26.094Z,21.39
2022-10-07T14:39:35.662Z,21.16
2022-10-07T14:40:37.365Z,20.98
2022-10-07T14:41:39.070Z,20.81
2022-10-07T14:42:40.705Z,20.62
2022-10-07T14:43:45.326Z,20.45
2022-10-07T14:44:47.818Z,20.28
2022-10-07T14:45:49.484Z,20.11
2022-10-07T14:47:04.357Z,19.98
2022-10-07T14:48:13.704Z,19.82
2022-10-07T14:49:15.375Z,19.66
2022-10-07T14:50:19.552Z,19.55
2022-10-07T14:51:25.079Z,19.44
2022-10-07T14:52:44.603Z,19.32
2022-10-07T14:53:54.807Z,19.18
2022-10-07T14:55:03.796Z,19.08
2022-10-07T14:56:05.640Z,19.00
2022-10-07T14:57:08.517Z,18.91
2022-10-07T14:58:11.012Z,18.83
2022-10-07T14:59:15.819Z,18.75
2022-10-07T15:00:25.985Z,18.66